Rhourd El Adra — 7TBS — position and weather

sailwx.info

Track history (hours):
 
Tides and Currents Weather Stations Pressure Air Temp Water Temp Dewpoint Dewpoint Depression Visibility Wind Speed Wind Dir Waves Ship Positions

Rhourd El Adra

Last reported at 2016-Jun-25 11:33 UTC. Time now 2016-Jun-25 12:30 UTC.
Position N 40°45' E 001°07'.

Length 156 m; draft 8.8 m.

Type: Ship (hazmat cat C). MMSI: 605026210.

Date/timePositionNaut miles runAvg speedWind from/ knotsBaromVisibWave heightAir tempDewpointWater temp
2016-Jun-25 11:33N 40°45' E 001°07'1514.8
2016-Jun-25 10:33N 40°31' E 001°03'1414.5
2016-Jun-25 09:33N 40°17' E 000°59'1614.7
2016-Jun-25 08:29N 40°01' E 000°55'3314.9
2016-Jun-25 06:16N 39°29' E 000°45'1014.7
2016-Jun-25 05:33N 39°19' E 000°43'1714.5
2016-Jun-25 04:22N 39°02' E 000°38'1514.6
2016-Jun-25 03:22N 38°48' E 000°34'1313.9
2016-Jun-25 02:24N 38°35' E 000°31'1214.3
2016-Jun-25 01:34N 38°23' E 000°28'1514.5
2016-Jun-25 00:33N 38°09' E 000°24'1514.6
2016-Jun-24 23:33N 37°54' E 000°20'1414.5
2016-Jun-24 22:33N 37°40' E 000°16'1514.9
2016-Jun-24 21:33N 37°26' E 000°12'1615.7
2016-Jun-24 20:34N 37°10' E 000°08'1615.6
2016-Jun-24 19:33N 36°55' E 000°06'1514.8
2016-Jun-24 18:33N 36°40' E 000°02'1514.6
2016-Jun-24 17:33N 36°26' W 000°02'1514.8
2016-Jun-24 16:33N 36°12' W 000°06'1414.1
2016-Jun-24 15:33N 35°58' W 000°10'10 9.9
2016-Jun-24 14:33N 35°49' W 000°15'0 0.0
2016-Jun-24 12:32N 35°49' W 000°15'0 0.0
2016-Jun-24 10:08N 35°49' W 000°15'0 0.0
2016-Jun-24 08:20N 35°49' W 000°15'0 0.0
2016-Jun-23 22:20N 35°49' W 000°15'0 0.0
2016-Jun-23 21:26N 35°49' W 000°15'0 0.0
2016-Jun-23 16:32N 35°49' W 000°15'2 2.0
2016-Jun-23 15:32N 35°51' W 000°15'0 0.0
2016-Jun-23 05:23N 35°51' W 000°15'0 0.0
2016-Jun-23 04:30N 35°51' W 000°15'0 0.0
2016-Jun-22 22:26N 35°51' W 000°15'0 0.0
2016-Jun-22 21:29N 35°51' W 000°15'0 0.0
2016-Jun-22 19:26N 35°51' W 000°15'0 0.0
2016-Jun-22 18:30N 35°51' W 000°15'0 0.0
2016-Jun-22 17:26N 35°51' W 000°15'0 0.0
2016-Jun-22 16:30N 35°51' W 000°15'0 0.0
2016-Jun-22 15:29N 35°51' W 000°15'0 0.0
2016-Jun-22 14:29N 35°51' W 000°15'0 0.0
2016-Jun-22 13:32N 35°51' W 000°15'0 0.0
2016-Jun-22 12:32N 35°51' W 000°15'0 0.0
2016-Jun-22 11:32N 35°51' W 000°15'0 0.0
2016-Jun-22 10:17N 35°51' W 000°15'0 0.0
2016-Jun-22 06:20N 35°51' W 000°15'0 0.0
2016-Jun-22 04:29N 35°51' W 000°15'0 0.0
2016-Jun-22 01:23N 35°51' W 000°15'0 0.0
2016-Jun-21 23:11N 35°51' W 000°15'0 0.0
2016-Jun-21 22:32N 35°51' W 000°15'0 0.0
2016-Jun-21 21:29N 35°51' W 000°15'0 0.0
2016-Jun-21 19:29N 35°51' W 000°15'0 0.0
2016-Jun-21 18:30N 35°51' W 000°15'0 0.0
2016-Jun-21 17:26N 35°51' W 000°15'0 0.0
2016-Jun-21 15:32N 35°51' W 000°15'0 0.0
2016-Jun-21 14:32N 35°51' W 000°15'0 0.1
2016-Jun-21 13:32N 35°51' W 000°15'23 2.8
2016-Jun-21 05:33N 36°13' W 000°21'2 1.7
2016-Jun-21 04:33N 36°12' W 000°19'2 1.7
2016-Jun-21 03:20N 36°12' W 000°17'2 1.7
2016-Jun-21 02:27N 36°12' W 000°15'2 2.1
2016-Jun-21 01:32N 36°10' W 000°13'3 2.6
2016-Jun-21 00:34N 36°08' W 000°12'3 2.2
2016-Jun-20 23:21N 36°08' W 000°09'43314.8
2016-Jun-19 18:03N 38°28' E 008°26'713.1
2016-Jun-19 17:31N 38°31' E 008°35'2812.9
2016-Jun-19 15:20N 38°41' E 009°08'23110.0
2016-Jun-18 16:08N 41°34' E 012°29'82 3.3
2016-Jun-17 15:31N 42°01' E 010°45'1414.4
2016-Jun-17 14:33N 42°07' E 010°28'5213.1
2016-Jun-17 10:33N 42°47' E 009°42'1414.4
2016-Jun-17 09:34N 43°01' E 009°36'1312.6
2016-Jun-17 08:33N 43°11' E 009°46'1414.1
2016-Jun-17 07:34N 43°19' E 010°02'1413.7
2016-Jun-17 06:34N 43°31' E 010°13'6 6.3
2016-Jun-17 05:33N 43°35' E 010°19'0 0.1
2016-Jun-17 04:33N 43°35' E 010°19'0 0.0
2016-Jun-17 03:33N 43°35' E 010°19'0 0.0
2016-Jun-17 02:33N 43°35' E 010°19'0 0.0
2016-Jun-17 01:33N 43°35' E 010°19'0 0.0
2016-Jun-17 00:30N 43°35' E 010°19'0 0.0
2016-Jun-16 23:33N 43°35' E 010°19'0 0.0
2016-Jun-16 22:30N 43°35' E 010°19'0 0.0
2016-Jun-16 21:30N 43°35' E 010°19'0 0.0
2016-Jun-16 20:33N 43°35' E 010°19'0 0.0
2016-Jun-16 19:33N 43°35' E 010°19'0 0.0
2016-Jun-16 18:33N 43°35' E 010°19'0 0.0
2016-Jun-16 17:33N 43°35' E 010°19'0 0.0
2016-Jun-16 16:33N 43°35' E 010°19'0 0.0
2016-Jun-16 15:33N 43°35' E 010°19'0 0.0
2016-Jun-16 14:30N 43°35' E 010°19'0 0.0
2016-Jun-16 13:33N 43°35' E 010°19'0 0.0
2016-Jun-16 12:33N 43°35' E 010°19'0 0.0
2016-Jun-16 11:33N 43°35' E 010°19'0 0.0
2016-Jun-16 10:33N 43°35' E 010°19'0 0.0
2016-Jun-16 09:33N 43°35' E 010°19'0 0.0
2016-Jun-16 08:33N 43°35' E 010°19'0 0.0
2016-Jun-16 07:33N 43°35' E 010°19'0 0.0
2016-Jun-16 06:33N 43°35' E 010°19'0 0.0
2016-Jun-16 05:33N 43°35' E 010°19'0 0.0
2016-Jun-16 04:24N 43°35' E 010°19'0 0.0
2016-Jun-16 03:30N 43°35' E 010°19'0 0.0
2016-Jun-16 02:33N 43°35' E 010°19'0 0.0
2016-Jun-16 01:30N 43°35' E 010°19'0 0.0
2016-Jun-16 00:21N 43°35' E 010°19'0 0.0
2016-Jun-15 23:33N 43°35' E 010°19'0 0.0
2016-Jun-15 22:33N 43°35' E 010°19'0 0.0
2016-Jun-15 21:30N 43°35' E 010°19'0 0.0
2016-Jun-15 20:24N 43°35' E 010°19'0 0.0
2016-Jun-15 19:30N 43°35' E 010°19'0 0.0
2016-Jun-15 18:33N 43°35' E 010°19'0 0.0
2016-Jun-15 17:30N 43°35' E 010°19'0 0.0
2016-Jun-15 16:33N 43°35' E 010°19'0 0.0
2016-Jun-15 15:33N 43°35' E 010°19'0 0.0
2016-Jun-15 14:33N 43°35' E 010°19'0 0.0
2016-Jun-15 13:33N 43°35' E 010°19'1 0.9
2016-Jun-15 12:33N 43°34' E 010°19'7 6.8
2016-Jun-15 11:34N 43°28' E 010°14'  
Track history (hours):
 
Tides and Currents Weather Stations Pressure Air Temp Water Temp Dewpoint Dewpoint Depression Visibility Wind Speed Wind Dir Waves Ship Positions

Rhourd El Adra

Last reported at 2016-Jun-25 11:33 UTC. Time now 2016-Jun-25 12:30 UTC.
Position N 40°45' E 001°07'.

Length 156 m; draft 8.8 m.

Type: Ship (hazmat cat C). MMSI: 605026210.

Date/timePositionNaut miles runAvg speedWind from/ knotsBaromVisibWave heightAir tempDewpointWater temp
2016-Jun-25 11:33N 40°45' E 001°07'1514.8
2016-Jun-25 10:33N 40°31' E 001°03'1414.5
2016-Jun-25 09:33N 40°17' E 000°59'1614.7
2016-Jun-25 08:29N 40°01' E 000°55'3314.9
2016-Jun-25 06:16N 39°29' E 000°45'1014.7
2016-Jun-25 05:33N 39°19' E 000°43'1714.5
2016-Jun-25 04:22N 39°02' E 000°38'1514.6
2016-Jun-25 03:22N 38°48' E 000°34'1313.9
2016-Jun-25 02:24N 38°35' E 000°31'1214.3
2016-Jun-25 01:34N 38°23' E 000°28'1514.5
2016-Jun-25 00:33N 38°09' E 000°24'1514.6
2016-Jun-24 23:33N 37°54' E 000°20'1414.5
2016-Jun-24 22:33N 37°40' E 000°16'1514.9
2016-Jun-24 21:33N 37°26' E 000°12'1615.7
2016-Jun-24 20:34N 37°10' E 000°08'1615.6
2016-Jun-24 19:33N 36°55' E 000°06'1514.8
2016-Jun-24 18:33N 36°40' E 000°02'1514.6
2016-Jun-24 17:33N 36°26' W 000°02'1514.8
2016-Jun-24 16:33N 36°12' W 000°06'1414.1
2016-Jun-24 15:33N 35°58' W 000°10'10 9.9
2016-Jun-24 14:33N 35°49' W 000°15'0 0.0
2016-Jun-24 12:32N 35°49' W 000°15'0 0.0
2016-Jun-24 10:08N 35°49' W 000°15'0 0.0
2016-Jun-24 08:20N 35°49' W 000°15'0 0.0
2016-Jun-23 22:20N 35°49' W 000°15'0 0.0
2016-Jun-23 21:26N 35°49' W 000°15'0 0.0
2016-Jun-23 16:32N 35°49' W 000°15'2 2.0
2016-Jun-23 15:32N 35°51' W 000°15'0 0.0
2016-Jun-23 05:23N 35°51' W 000°15'0 0.0
2016-Jun-23 04:30N 35°51' W 000°15'0 0.0
2016-Jun-22 22:26N 35°51' W 000°15'0 0.0
2016-Jun-22 21:29N 35°51' W 000°15'0 0.0
2016-Jun-22 19:26N 35°51' W 000°15'0 0.0
2016-Jun-22 18:30N 35°51' W 000°15'0 0.0
2016-Jun-22 17:26N 35°51' W 000°15'0 0.0
2016-Jun-22 16:30N 35°51' W 000°15'0 0.0
2016-Jun-22 15:29N 35°51' W 000°15'0 0.0
2016-Jun-22 14:29N 35°51' W 000°15'0 0.0
2016-Jun-22 13:32N 35°51' W 000°15'0 0.0
2016-Jun-22 12:32N 35°51' W 000°15'0 0.0
2016-Jun-22 11:32N 35°51' W 000°15'0 0.0
2016-Jun-22 10:17N 35°51' W 000°15'0 0.0
2016-Jun-22 06:20N 35°51' W 000°15'0 0.0
2016-Jun-22 04:29N 35°51' W 000°15'0 0.0
2016-Jun-22 01:23N 35°51' W 000°15'0 0.0
2016-Jun-21 23:11N 35°51' W 000°15'0 0.0
2016-Jun-21 22:32N 35°51' W 000°15'0 0.0
2016-Jun-21 21:29N 35°51' W 000°15'0 0.0
2016-Jun-21 19:29N 35°51' W 000°15'0 0.0
2016-Jun-21 18:30N 35°51' W 000°15'0 0.0
2016-Jun-21 17:26N 35°51' W 000°15'0 0.0
2016-Jun-21 15:32N 35°51' W 000°15'0 0.0
2016-Jun-21 14:32N 35°51' W 000°15'0 0.1
2016-Jun-21 13:32N 35°51' W 000°15'23 2.8
2016-Jun-21 05:33N 36°13' W 000°21'2 1.7
2016-Jun-21 04:33N 36°12' W 000°19'2 1.7
2016-Jun-21 03:20N 36°12' W 000°17'2 1.7
2016-Jun-21 02:27N 36°12' W 000°15'2 2.1
2016-Jun-21 01:32N 36°10' W 000°13'3 2.6
2016-Jun-21 00:34N 36°08' W 000°12'3 2.2
2016-Jun-20 23:21N 36°08' W 000°09'43314.8
2016-Jun-19 18:03N 38°28' E 008°26'713.1
2016-Jun-19 17:31N 38°31' E 008°35'2812.9
2016-Jun-19 15:20N 38°41' E 009°08'23110.0
2016-Jun-18 16:08N 41°34' E 012°29'82 3.3
2016-Jun-17 15:31N 42°01' E 010°45'1414.4
2016-Jun-17 14:33N 42°07' E 010°28'5213.1
2016-Jun-17 10:33N 42°47' E 009°42'1414.4
2016-Jun-17 09:34N 43°01' E 009°36'1312.6
2016-Jun-17 08:33N 43°11' E 009°46'1414.1
2016-Jun-17 07:34N 43°19' E 010°02'1413.7
2016-Jun-17 06:34N 43°31' E 010°13'6 6.3
2016-Jun-17 05:33N 43°35' E 010°19'0 0.1
2016-Jun-17 04:33N 43°35' E 010°19'0 0.0
2016-Jun-17 03:33N 43°35' E 010°19'0 0.0
2016-Jun-17 02:33N 43°35' E 010°19'0 0.0
2016-Jun-17 01:33N 43°35' E 010°19'0 0.0
2016-Jun-17 00:30N 43°35' E 010°19'0 0.0
2016-Jun-16 23:33N 43°35' E 010°19'0 0.0
2016-Jun-16 22:30N 43°35' E 010°19'0 0.0
2016-Jun-16 21:30N 43°35' E 010°19'0 0.0
2016-Jun-16 20:33N 43°35' E 010°19'0 0.0
2016-Jun-16 19:33N 43°35' E 010°19'0 0.0
2016-Jun-16 18:33N 43°35' E 010°19'0 0.0
2016-Jun-16 17:33N 43°35' E 010°19'0 0.0
2016-Jun-16 16:33N 43°35' E 010°19'0 0.0
2016-Jun-16 15:33N 43°35' E 010°19'0 0.0
2016-Jun-16 14:30N 43°35' E 010°19'0 0.0
2016-Jun-16 13:33N 43°35' E 010°19'0 0.0
2016-Jun-16 12:33N 43°35' E 010°19'0 0.0
2016-Jun-16 11:33N 43°35' E 010°19'0 0.0
2016-Jun-16 10:33N 43°35' E 010°19'0 0.0
2016-Jun-16 09:33N 43°35' E 010°19'0 0.0
2016-Jun-16 08:33N 43°35' E 010°19'0 0.0
2016-Jun-16 07:33N 43°35' E 010°19'0 0.0
2016-Jun-16 06:33N 43°35' E 010°19'0 0.0
2016-Jun-16 05:33N 43°35' E 010°19'0 0.0
2016-Jun-16 04:24N 43°35' E 010°19'0 0.0
2016-Jun-16 03:30N 43°35' E 010°19'0 0.0
2016-Jun-16 02:33N 43°35' E 010°19'0 0.0
2016-Jun-16 01:30N 43°35' E 010°19'0 0.0
2016-Jun-16 00:21N 43°35' E 010°19'0 0.0
2016-Jun-15 23:33N 43°35' E 010°19'0 0.0
2016-Jun-15 22:33N 43°35' E 010°19'0 0.0
2016-Jun-15 21:30N 43°35' E 010°19'0 0.0
2016-Jun-15 20:24N 43°35' E 010°19'0 0.0
2016-Jun-15 19:30N 43°35' E 010°19'0 0.0
2016-Jun-15 18:33N 43°35' E 010°19'0 0.0
2016-Jun-15 17:30N 43°35' E 010°19'0 0.0
2016-Jun-15 16:33N 43°35' E 010°19'0 0.0
2016-Jun-15 15:33N 43°35' E 010°19'0 0.0
2016-Jun-15 14:33N 43°35' E 010°19'0 0.0
2016-Jun-15 13:33N 43°35' E 010°19'1 0.9
2016-Jun-15 12:33N 43°34' E 010°19'7 6.8
2016-Jun-15 11:34N 43°28' E 010°14'  

Dump ship's entire track history